Terminal Aerodrome Forecast
Issued by NWS Bismarck, ND

Home | Current Version | Previous Version | Text Only | Print | Product List | Glossary Off
Versions: 1 2 3 4 5 6 7 8 9 10 11 12 13 14 15 16 17 18 19 20 21

133
FTUS43 KBIS 132332
TAFBIS
TAF
KBIS 132332Z 1400/1424 14016KT 3/4SM -SN OVC012
     FM140130 14014KT 2SM -SN OVC008
     FM140300 14012KT 6SM -SN OVC008
     FM141000 28009KT P6SM VCSH OVC015
     FM141800 29009KT P6SM SCT025 BKN100=

USA.gov is the U.S. government's official web portal to all federal, state and local government web resources and services.